createdAt,value
2019-05-06T00:00:08.992Z,67.82
2019-05-06T00:01:08.955Z,67.93
2019-05-06T00:02:08.935Z,67.93
2019-05-06T00:03:08.903Z,67.48
2019-05-06T00:04:08.886Z,67.58
2019-05-06T00:05:08.829Z,67.48
2019-05-06T00:06:08.804Z,68.21
2019-05-06T00:07:08.767Z,68.10
2019-05-06T00:08:08.730Z,67.90
2019-05-06T00:09:08.748Z,67.69
2019-05-06T00:10:08.661Z,68.21
2019-05-06T00:11:08.632Z,67.76
2019-05-06T00:12:08.605Z,68.10
2019-05-06T00:13:08.567Z,68.41
2019-05-06T00:14:08.559Z,67.69
2019-05-06T00:15:08.500Z,68.27
2019-05-06T00:16:08.470Z,66.94
2019-05-06T00:17:08.447Z,67.45
2019-05-06T00:18:08.409Z,67.86
2019-05-06T00:19:08.371Z,67.03
2019-05-06T00:20:08.361Z,67.03
2019-05-06T00:21:08.333Z,66.28
2019-05-06T00:22:08.279Z,66.18
2019-05-06T00:23:08.239Z,66.39
2019-05-06T00:24:08.211Z,66.18
2019-05-06T00:25:08.203Z,65.25
2019-05-06T00:26:08.145Z,65.36
2019-05-06T00:27:08.119Z,64.74
2019-05-06T00:28:08.092Z,64.12
2019-05-06T00:29:08.056Z,63.68
2019-05-06T00:30:08.055Z,64.09
2019-05-06T00:31:12.934Z,63.27
2019-05-06T00:32:07.960Z,64.19
2019-05-06T00:33:07.920Z,63.78
2019-05-06T00:34:07.890Z,63.99
2019-05-06T00:35:07.870Z,63.06
2019-05-06T00:36:07.818Z,62.85
2019-05-06T00:37:07.805Z,62.54
2019-05-06T00:38:07.759Z,62.54
2019-05-06T00:39:07.718Z,62.54
2019-05-06T00:40:07.733Z,62.44
2019-05-06T00:41:07.658Z,62.57
2019-05-06T00:42:07.641Z,62.65
2019-05-06T00:43:07.588Z,62.54
2019-05-06T00:44:07.556Z,62.54
2019-05-06T00:45:07.548Z,63.60
2019-05-06T00:46:07.494Z,62.88
2019-05-06T00:47:07.460Z,63.19
2019-05-06T00:48:07.425Z,63.40
2019-05-06T00:49:07.398Z,63.81
2019-05-06T00:50:07.392Z,63.40
2019-05-06T00:51:07.337Z,62.78
2019-05-06T00:52:07.301Z,64.02
2019-05-06T00:53:07.262Z,63.74
2019-05-06T00:54:07.237Z,64.04
2019-05-06T00:55:08.014Z,64.46
2019-05-06T00:56:07.174Z,64.87
2019-05-06T00:57:07.132Z,64.80
2019-05-06T00:58:07.104Z,64.49
2019-05-06T00:59:07.074Z,64.49
2019-05-06T01:00:07.070Z,64.59
2019-05-06T01:01:07.003Z,65.45
2019-05-06T01:02:06.971Z,65.42
2019-05-06T01:03:06.942Z,65.97
2019-05-06T01:04:06.910Z,66.07
2019-05-06T01:05:06.904Z,66.48
2019-05-06T01:06:06.866Z,66.17
2019-05-06T01:07:06.809Z,66.41
2019-05-06T01:08:06.807Z,66.41
2019-05-06T01:09:06.746Z,66.51
2019-05-06T01:10:06.773Z,66.20
2019-05-06T01:11:06.719Z,66.51
2019-05-06T01:12:06.653Z,66.51
2019-05-06T01:13:06.610Z,67.03
2019-05-06T01:14:06.578Z,67.06
2019-05-06T01:15:06.547Z,66.64
2019-05-06T01:16:06.570Z,66.96
2019-05-06T01:17:06.483Z,67.88
2019-05-06T01:18:06.474Z,67.40
2019-05-06T01:19:06.411Z,68.02
2019-05-06T01:20:06.376Z,67.71
2019-05-06T01:21:06.404Z,68.02
2019-05-06T01:22:06.371Z,67.82
2019-05-06T01:23:06.282Z,68.77
2019-05-06T01:24:06.245Z,68.98
2019-05-06T01:25:06.209Z,69.29
2019-05-06T01:26:06.241Z,68.98
2019-05-06T01:27:06.147Z,69.32
2019-05-06T01:28:06.121Z,69.95
2019-05-06T01:29:06.082Z,70.05
2019-05-06T01:30:06.062Z,69.84
2019-05-06T01:31:06.066Z,69.95
2019-05-06T01:32:05.989Z,70.36
2019-05-06T01:33:05.949Z,70.57
2019-05-06T01:34:05.955Z,70.81
2019-05-06T01:35:05.879Z,70.81
2019-05-06T01:36:05.847Z,71.01
2019-05-06T01:37:05.816Z,71.36
2019-05-06T01:38:05.785Z,71.77
2019-05-06T01:39:05.782Z,71.77
2019-05-06T01:40:05.720Z,72.08
2019-05-06T01:41:05.678Z,71.80
2019-05-06T01:42:05.644Z,72.19
2019-05-06T01:43:05.634Z,72.11
2019-05-06T01:44:05.673Z,72.94
2019-05-06T01:45:05.551Z,73.46
2019-05-06T01:46:05.536Z,73.77
2019-05-06T01:47:05.477Z,73.98
2019-05-06T01:48:05.439Z,73.70
2019-05-06T01:49:05.450Z,74.01
2019-05-06T01:50:05.514Z,74.53
2019-05-06T01:51:05.352Z,75.05
2019-05-06T01:52:05.307Z,74.84
2019-05-06T01:53:05.326Z,74.84
2019-05-06T01:54:05.230Z,74.95
2019-05-06T01:55:05.206Z,75.29
2019-05-06T01:56:05.170Z,75.29
2019-05-06T01:57:05.136Z,75.81
2019-05-06T01:58:05.245Z,75.71
2019-05-06T01:59:05.069Z,76.02
2019-05-06T02:00:05.048Z,76.16
2019-05-06T02:01:05.011Z,76.26
2019-05-06T02:02:04.960Z,76.68
2019-05-06T02:03:04.973Z,77.33
2019-05-06T02:04:04.891Z,77.61
2019-05-06T02:05:04.941Z,77.30
2019-05-06T02:06:04.929Z,77.72
2019-05-06T02:07:04.894Z,77.61
2019-05-06T02:08:04.757Z,77.64
2019-05-06T02:09:04.772Z,77.51
2019-05-06T02:10:04.686Z,77.95
2019-05-06T02:11:04.673Z,77.54
2019-05-06T02:12:04.857Z,77.75
2019-05-06T02:13:04.588Z,78.16
2019-05-06T02:14:04.868Z,78.92
2019-05-06T02:15:04.513Z,78.68
2019-05-06T02:16:04.484Z,79.34
2019-05-06T02:17:04.501Z,79.34
2019-05-06T02:18:04.466Z,79.65
2019-05-06T02:19:04.386Z,79.76
2019-05-06T02:20:04.369Z,79.80
2019-05-06T02:21:05.507Z,79.97
2019-05-06T02:22:04.382Z,80.11
2019-05-06T02:23:04.329Z,80.49
2019-05-06T02:24:04.394Z,80.52
2019-05-06T02:25:04.589Z,80.52
2019-05-06T02:26:04.873Z,80.32
2019-05-06T02:27:04.490Z,80.32
2019-05-06T02:28:04.112Z,80.73
2019-05-06T02:29:04.332Z,81.04
2019-05-06T02:30:05.422Z,81.15
2019-05-06T02:31:05.329Z,81.46
2019-05-06T02:32:19.914Z,81.04
2019-05-06T02:33:04.486Z,81.04
2019-05-06T02:34:05.091Z,81.29
2019-05-06T02:35:05.201Z,81.35
2019-05-06T02:36:06.414Z,81.29
2019-05-06T02:37:06.382Z,81.49
2019-05-06T02:38:04.915Z,81.91
2019-05-06T02:39:03.764Z,81.91
2019-05-06T02:40:04.366Z,81.98
2019-05-06T02:41:03.843Z,82.64
2019-05-06T02:42:04.186Z,82.84
2019-05-06T02:43:03.593Z,82.39
2019-05-06T02:44:03.837Z,82.64
2019-05-06T02:45:04.160Z,82.74
2019-05-06T02:46:04.221Z,82.43
2019-05-06T02:47:03.419Z,82.32
2019-05-06T02:48:04.412Z,82.32
2019-05-06T02:49:04.003Z,83.05
2019-05-06T02:50:04.505Z,83.05
2019-05-06T02:51:03.944Z,83.05
2019-05-06T02:52:03.324Z,82.99
2019-05-06T02:53:03.223Z,82.68
2019-05-06T02:54:03.491Z,82.95
2019-05-06T02:55:06.017Z,83.51
2019-05-06T02:56:04.207Z,83.72
2019-05-06T02:57:04.183Z,83.72
2019-05-06T02:58:03.022Z,84.23
2019-05-06T02:59:03.902Z,84.03
2019-05-06T03:00:05.025Z,84.03
2019-05-06T03:01:03.750Z,84.23
2019-05-06T03:02:03.601Z,84.44
2019-05-06T03:03:03.075Z,84.34
2019-05-06T03:04:04.501Z,84.59
2019-05-06T03:05:04.262Z,84.69
2019-05-06T03:06:03.868Z,84.17
2019-05-06T03:07:03.658Z,83.96
2019-05-06T03:08:03.288Z,84.59
2019-05-06T03:09:03.120Z,84.27
2019-05-06T03:10:04.214Z,84.27
2019-05-06T03:11:04.039Z,84.17
2019-05-06T03:12:03.639Z,84.69
2019-05-06T03:13:02.970Z,84.52
2019-05-06T03:14:03.238Z,84.83
2019-05-06T03:15:03.391Z,84.83
2019-05-06T03:16:05.290Z,85.88
2019-05-06T03:17:03.576Z,86.40
2019-05-06T03:18:03.171Z,86.29
2019-05-06T03:19:04.197Z,86.08
2019-05-06T03:20:04.220Z,86.29
2019-05-06T03:21:03.830Z,85.91
2019-05-06T03:22:03.421Z,85.98
2019-05-06T03:23:03.716Z,86.02
2019-05-06T03:24:06.967Z,86.12
2019-05-06T03:25:06.251Z,86.12
2019-05-06T03:26:03.749Z,85.77
2019-05-06T03:27:04.596Z,86.12
2019-05-06T03:28:04.210Z,86.12
2019-05-06T03:29:02.915Z,86.27
2019-05-06T03:30:04.127Z,86.33
2019-05-06T03:31:06.605Z,86.79
2019-05-06T03:32:06.076Z,86.68
2019-05-06T03:33:30.918Z,87.20
2019-05-06T03:34:28.975Z,86.99
2019-05-06T03:35:25.103Z,87.83
2019-05-06T03:36:15.453Z,88.04
2019-05-06T03:37:06.637Z,87.93
2019-05-06T03:38:03.820Z,87.93
2019-05-06T03:39:03.053Z,88.04
2019-05-06T03:40:03.059Z,87.83
2019-05-06T03:41:03.011Z,87.93
2019-05-06T03:42:04.224Z,88.04
2019-05-06T03:43:02.826Z,87.87
2019-05-06T03:44:03.310Z,87.76
2019-05-06T03:45:04.158Z,87.76
2019-05-06T03:46:03.554Z,87.76
2019-05-06T03:47:05.352Z,87.97
2019-05-06T03:48:05.441Z,88.29
2019-05-06T03:49:03.632Z,88.29
2019-05-06T03:50:04.713Z,88.18
2019-05-06T03:51:03.845Z,88.12
2019-05-06T03:52:02.721Z,88.12
2019-05-06T03:53:03.283Z,88.39
2019-05-06T03:54:03.385Z,88.45
2019-05-06T03:55:03.598Z,88.35
2019-05-06T03:56:03.356Z,88.10
2019-05-06T03:57:03.150Z,87.27
2019-05-06T03:58:03.594Z,86.50
2019-05-06T03:59:02.828Z,86.19
2019-05-06T04:00:04.308Z,86.19
2019-05-06T04:01:03.567Z,85.88
2019-05-06T04:02:00.825Z,86.08
2019-05-06T04:03:03.083Z,86.29
2019-05-06T04:04:03.558Z,85.67
2019-05-06T04:05:03.611Z,85.56
2019-05-06T04:06:03.793Z,86.19
2019-05-06T04:07:03.285Z,86.19
2019-05-06T04:08:03.630Z,86.29
2019-05-06T04:09:03.356Z,86.08
2019-05-06T04:10:03.483Z,86.08
2019-05-06T04:11:03.073Z,85.98
2019-05-06T04:12:03.284Z,86.08
2019-05-06T04:13:00.377Z,86.19
2019-05-06T04:14:02.757Z,86.08
2019-05-06T04:15:03.539Z,85.67
2019-05-06T04:16:03.556Z,85.77
2019-05-06T04:17:00.241Z,85.98
2019-05-06T04:18:00.210Z,86.19
2019-05-06T04:19:00.223Z,86.08
2019-05-06T04:20:03.757Z,86.19
2019-05-06T04:21:03.507Z,85.98
2019-05-06T04:22:03.490Z,86.19
2019-05-06T04:23:00.029Z,85.94
2019-05-06T04:24:00.184Z,85.94
2019-05-06T04:25:03.597Z,85.94
2019-05-06T04:25:59.940Z,86.25
2019-05-06T04:27:02.868Z,86.11
2019-05-06T04:27:59.870Z,86.11
2019-05-06T04:29:03.670Z,85.59
2019-05-06T04:29:59.793Z,85.59
2019-05-06T04:31:02.536Z,85.28
2019-05-06T04:31:59.718Z,84.75
2019-05-06T04:32:59.689Z,84.44
2019-05-06T04:34:09.949Z,84.92
2019-05-06T04:34:59.634Z,84.92
2019-05-06T04:35:59.636Z,84.72
2019-05-06T04:36:59.540Z,84.47
2019-05-06T04:37:59.504Z,83.89
2019-05-06T04:38:59.468Z,84.61
2019-05-06T04:39:59.565Z,84.37
2019-05-06T04:40:59.453Z,84.05
2019-05-06T04:41:59.390Z,84.27
2019-05-06T04:42:59.343Z,83.84
2019-05-06T04:43:59.337Z,83.84
2019-05-06T04:44:59.264Z,82.70
2019-05-06T04:45:59.226Z,82.98
2019-05-06T04:46:59.206Z,82.67
2019-05-06T04:47:59.201Z,82.01
2019-05-06T04:48:59.130Z,81.49
2019-05-06T04:49:59.084Z,81.14
2019-05-06T04:50:59.050Z,80.73
2019-05-06T04:51:59.018Z,80.41
2019-05-06T04:52:59.036Z,80.52
2019-05-06T04:53:58.954Z,79.96
2019-05-06T04:54:58.959Z,80.37
2019-05-06T04:55:58.897Z,80.21
2019-05-06T04:56:58.911Z,80.31
2019-05-06T04:57:58.815Z,80.31
2019-05-06T04:58:58.778Z,80.27
2019-05-06T04:59:58.796Z,80.37
2019-05-06T05:00:58.707Z,80.47
2019-05-06T05:01:58.729Z,79.85
2019-05-06T05:02:58.648Z,79.68
2019-05-06T05:03:58.615Z,78.64
2019-05-06T05:04:58.678Z,78.54
2019-05-06T05:06:01.764Z,78.23
2019-05-06T05:06:58.530Z,78.02
2019-05-06T05:07:58.475Z,78.13
2019-05-06T05:08:59.056Z,78.44
2019-05-06T05:09:58.408Z,78.64
2019-05-06T05:10:58.375Z,79.16
2019-05-06T05:11:58.339Z,79.30
2019-05-06T05:12:58.362Z,79.06
2019-05-06T05:13:58.268Z,79.16
2019-05-06T05:14:59.183Z,78.47
2019-05-06T05:15:58.194Z,77.43
2019-05-06T05:16:58.194Z,77.09
2019-05-06T05:17:58.161Z,77.19
2019-05-06T05:18:58.095Z,77.12
2019-05-06T05:19:58.071Z,77.12
2019-05-06T05:20:58.035Z,77.12
2019-05-06T05:21:58.031Z,77.22
2019-05-06T05:22:57.966Z,77.64
2019-05-06T05:23:57.929Z,78.05
2019-05-06T05:24:57.892Z,77.95
2019-05-06T05:25:57.866Z,78.47
2019-05-06T05:26:57.851Z,78.05
2019-05-06T05:27:57.793Z,78.36
2019-05-06T05:28:57.761Z,78.36
2019-05-06T05:29:57.729Z,77.64
2019-05-06T05:30:57.693Z,77.60
2019-05-06T05:31:57.687Z,77.91
2019-05-06T05:32:57.624Z,78.43
2019-05-06T05:33:57.599Z,77.64
2019-05-06T05:34:57.567Z,77.60
2019-05-06T05:35:57.530Z,77.70
2019-05-06T05:36:57.514Z,77.39
2019-05-06T05:37:57.461Z,77.36
2019-05-06T05:38:57.432Z,77.15
2019-05-06T05:39:57.395Z,76.95
2019-05-06T05:40:57.363Z,76.95
2019-05-06T05:41:57.327Z,76.95
2019-05-06T05:42:57.317Z,77.05
2019-05-06T05:43:57.255Z,76.29
2019-05-06T05:44:57.228Z,76.32
2019-05-06T05:45:57.191Z,76.29
2019-05-06T05:46:57.153Z,76.39
2019-05-06T05:47:57.144Z,76.18
2019-05-06T05:48:57.090Z,76.81
2019-05-06T05:49:57.056Z,75.98
2019-05-06T05:50:57.024Z,76.18
2019-05-06T05:51:56.985Z,76.36
2019-05-06T05:52:56.976Z,76.46
2019-05-06T05:53:56.933Z,76.36
2019-05-06T05:54:56.896Z,75.95
2019-05-06T05:55:56.858Z,75.95
2019-05-06T05:56:56.825Z,75.60
2019-05-06T05:57:56.822Z,75.22
2019-05-06T05:58:56.790Z,75.32
2019-05-06T05:59:56.731Z,74.67
2019-05-06T06:00:56.696Z,74.71
2019-05-06T06:01:56.665Z,75.19
2019-05-06T06:02:56.647Z,74.57
2019-05-06T06:03:56.597Z,74.77
2019-05-06T06:04:57.609Z,74.26
2019-05-06T06:05:56.527Z,73.71
2019-05-06T06:06:56.502Z,73.50
2019-05-06T06:07:56.494Z,73.71
2019-05-06T06:08:56.425Z,73.71
2019-05-06T06:09:56.395Z,73.60
2019-05-06T06:10:56.363Z,73.91
2019-05-06T06:11:56.386Z,73.39
2019-05-06T06:12:56.350Z,73.71
2019-05-06T06:13:56.274Z,73.39
2019-05-06T06:14:56.517Z,73.47
2019-05-06T06:15:56.195Z,73.47
2019-05-06T06:16:56.168Z,72.23
2019-05-06T06:17:56.158Z,72.33
2019-05-06T06:18:56.099Z,72.30
2019-05-06T06:19:56.077Z,72.40
2019-05-06T06:20:56.048Z,71.99
2019-05-06T06:21:56.028Z,72.19
2019-05-06T06:22:55.990Z,72.09
2019-05-06T06:23:55.931Z,72.16
2019-05-06T06:24:55.906Z,71.55
2019-05-06T06:25:55.869Z,71.03
2019-05-06T06:26:55.834Z,70.31
2019-05-06T06:27:55.823Z,70.62
2019-05-06T06:28:55.774Z,70.20
2019-05-06T06:29:55.736Z,70.00
2019-05-06T06:30:55.706Z,69.79
2019-05-06T06:31:55.698Z,70.00
2019-05-06T06:32:55.666Z,70.00
2019-05-06T06:33:55.611Z,70.20
2019-05-06T06:35:07.400Z,70.41
2019-05-06T06:35:55.543Z,70.37
2019-05-06T06:36:55.510Z,70.28
2019-05-06T06:37:55.472Z,69.96
2019-05-06T06:38:55.471Z,69.55
2019-05-06T06:39:55.424Z,69.31
2019-05-06T06:40:55.768Z,69.21
2019-05-06T06:41:55.349Z,68.90
2019-05-06T06:42:55.315Z,68.90
2019-05-06T06:43:55.308Z,68.80
2019-05-06T06:44:55.262Z,68.80
2019-05-06T06:45:55.219Z,68.18
2019-05-06T06:46:55.186Z,68.66
2019-05-06T06:47:55.154Z,67.94
2019-05-06T06:48:55.148Z,68.66
2019-05-06T06:49:55.091Z,67.33
2019-05-06T06:50:55.060Z,66.91
2019-05-06T06:51:55.035Z,66.47
2019-05-06T06:52:54.993Z,66.37
2019-05-06T06:53:54.980Z,66.27
2019-05-06T06:54:54.928Z,65.65
2019-05-06T06:55:54.890Z,65.65
2019-05-06T06:57:05.074Z,66.37
2019-05-06T06:57:54.829Z,66.13
2019-05-06T06:58:54.817Z,65.31
2019-05-06T06:59:54.780Z,65.20
2019-05-06T07:00:54.760Z,65.17
2019-05-06T07:01:54.707Z,64.63
2019-05-06T07:02:54.673Z,63.71
2019-05-06T07:03:54.658Z,64.53
2019-05-06T07:04:54.609Z,64.32
2019-05-06T07:05:54.571Z,63.50
2019-05-06T07:06:54.548Z,63.47
2019-05-06T07:07:54.507Z,63.47
2019-05-06T07:08:54.535Z,61.21
2019-05-06T07:09:54.455Z,61.65
2019-05-06T07:10:54.415Z,61.86
2019-05-06T07:11:54.382Z,62.37
2019-05-06T07:12:54.353Z,61.47
2019-05-06T07:13:54.364Z,61.58
2019-05-06T07:14:54.292Z,61.86
2019-05-06T07:15:54.253Z,61.93
2019-05-06T07:16:54.230Z,61.93
2019-05-06T07:17:54.197Z,61.42
2019-05-06T07:18:54.190Z,60.91
2019-05-06T07:19:54.130Z,61.90
2019-05-06T07:20:54.102Z,60.67
2019-05-06T07:21:54.069Z,60.80
2019-05-06T07:22:54.033Z,60.08
2019-05-06T07:23:54.011Z,59.80
2019-05-06T07:24:54.008Z,60.52
2019-05-06T07:25:54.026Z,60.70
2019-05-06T07:26:53.921Z,60.16
2019-05-06T07:27:53.883Z,59.75
2019-05-06T07:28:53.858Z,60.36
2019-05-06T07:29:53.850Z,60.03
2019-05-06T07:30:53.787Z,59.00
2019-05-06T07:31:53.756Z,59.20
2019-05-06T07:32:53.723Z,58.26
2019-05-06T07:33:53.692Z,58.97
2019-05-06T07:34:53.683Z,59.08
2019-05-06T07:35:53.643Z,59.08
2019-05-06T07:36:53.599Z,58.15
2019-05-06T07:37:53.568Z,58.36
2019-05-06T07:38:53.582Z,59.00
2019-05-06T07:39:53.533Z,58.80
2019-05-06T07:40:53.476Z,58.67
2019-05-06T07:41:53.660Z,57.61
2019-05-06T07:42:53.441Z,56.23
2019-05-06T07:43:53.403Z,55.10
2019-05-06T07:44:53.377Z,54.57
2019-05-06T07:45:53.323Z,55.08
2019-05-06T07:46:53.298Z,54.67
2019-05-06T07:47:53.286Z,55.08
2019-05-06T07:48:53.262Z,54.87
2019-05-06T07:49:53.330Z,54.64
2019-05-06T07:50:53.166Z,54.64
2019-05-06T07:51:53.329Z,53.59
2019-05-06T07:52:53.119Z,53.69
2019-05-06T07:53:53.087Z,53.69
2019-05-06T07:54:53.465Z,52.80
2019-05-06T07:55:53.027Z,53.52
2019-05-06T07:56:52.995Z,54.33
2019-05-06T07:57:52.963Z,53.80
2019-05-06T07:58:53.039Z,52.85
2019-05-06T07:59:52.952Z,52.95
2019-05-06T08:00:52.871Z,52.85
2019-05-06T08:01:54.067Z,53.06
2019-05-06T08:02:52.813Z,52.95
2019-05-06T08:03:53.373Z,52.44
2019-05-06T08:04:53.321Z,52.37
2019-05-06T08:05:58.407Z,53.59
2019-05-06T08:06:52.699Z,53.41
2019-05-06T08:07:55.169Z,53.72
2019-05-06T08:08:53.778Z,53.82
2019-05-06T08:09:53.044Z,53.72
2019-05-06T08:10:52.757Z,53.52
2019-05-06T08:11:53.085Z,54.16
2019-05-06T08:12:52.728Z,53.95
2019-05-06T08:13:52.841Z,54.36
2019-05-06T08:14:52.615Z,54.57
2019-05-06T08:15:53.367Z,53.41
2019-05-06T08:16:53.155Z,53.26
2019-05-06T08:17:52.522Z,52.42
2019-05-06T08:18:52.589Z,51.60
2019-05-06T08:19:52.884Z,51.93
2019-05-06T08:20:52.313Z,52.98
2019-05-06T08:21:52.256Z,53.39
2019-05-06T08:22:52.948Z,52.67
2019-05-06T08:23:52.377Z,52.24
2019-05-06T08:24:53.191Z,51.91
2019-05-06T08:25:54.379Z,51.37
2019-05-06T08:26:52.230Z,51.15
2019-05-06T08:27:53.207Z,50.53
2019-05-06T08:28:52.708Z,50.76
2019-05-06T08:29:52.637Z,52.01
2019-05-06T08:30:53.148Z,51.81
2019-05-06T08:31:52.460Z,52.11
2019-05-06T08:32:52.863Z,52.42
2019-05-06T08:33:52.539Z,51.21
2019-05-06T08:34:52.375Z,51.67
2019-05-06T08:35:54.559Z,52.11
2019-05-06T08:36:53.370Z,52.62
2019-05-06T08:37:53.105Z,52.92
2019-05-06T08:38:53.243Z,52.83
2019-05-06T08:39:52.699Z,53.54
2019-05-06T08:40:52.570Z,53.95
2019-05-06T08:41:52.866Z,54.05
2019-05-06T08:42:53.225Z,54.28
2019-05-06T08:43:52.770Z,54.46
2019-05-06T08:44:53.057Z,54.46
2019-05-06T08:45:52.857Z,52.62
2019-05-06T08:46:53.261Z,53.03
2019-05-06T08:47:52.401Z,53.00
2019-05-06T08:48:52.548Z,52.67
2019-05-06T08:49:52.730Z,52.06
2019-05-06T08:50:52.860Z,51.73
2019-05-06T08:51:53.119Z,52.14
2019-05-06T08:52:52.304Z,51.93
2019-05-06T08:53:53.363Z,51.83
2019-05-06T08:54:52.671Z,51.83
2019-05-06T08:55:52.961Z,51.73
2019-05-06T08:56:52.329Z,50.81
2019-05-06T08:57:53.193Z,51.50
2019-05-06T08:58:52.767Z,49.63
2019-05-06T08:59:51.142Z,49.22
2019-05-06T09:00:53.212Z,47.67
2019-05-06T09:01:53.166Z,49.54
2019-05-06T09:02:53.023Z,48.10
2019-05-06T09:04:09.450Z,47.80
2019-05-06T09:04:57.624Z,47.67
2019-05-06T09:05:56.519Z,47.96
